Time;durP1;ratioP1;P1;durP2;ratioP2;P2;SDS_P1;SDS_P2;PMS_P1;PMS_P2;Temp;Humidity;BMP_temperature;BMP_pressure;BME280_temperature;BME280_humidity;BME280_pressure;Samples;Min_cycle;Max_cycle;Signal;HPM_P1;HPM_P2
2023/09/03 00:01:01;;;;;;;0.00;0.00;;;10.30;99.90;;;;;;5155855;27;20042;-77
2023/09/03 00:03:27;;;;;;;0.00;0.00;;;10.30;1.00;;;;;;5155859;27;20042;-75
2023/09/03 00:05:56;;;;;;;0.00;0.00;;;10.30;2.30;;;;;;5147563;27;20378;-75
2023/09/03 00:08:22;;;;;;;0.00;0.00;;;10.30;79.00;;;;;;5146274;27;20086;-75
2023/09/03 00:10:49;;;;;;;0.05;0.05;;;10.20;4.70;;;;;;5154951;27;20125;-75
2023/09/03 00:13:15;;;;;;;0.57;0.30;;;10.30;64.50;;;;;;5151453;27;20035;-75
2023/09/03 00:15:40;;;;;;;0.32;0.30;;;10.60;62.10;;;;;;5144730;27;20095;-75
2023/09/03 00:18:06;;;;;;;2.35;1.02;;;10.30;99.90;;;;;;5135340;27;20042;-75
2023/09/03 00:20:32;;;;;;;0.70;0.43;;;10.30;99.90;;;;;;5152898;27;20050;-75
2023/09/03 00:22:58;;;;;;;0.43;0.20;;;10.30;99.90;;;;;;5155377;27;20062;-75
2023/09/03 00:25:23;;;;;;;0.28;0.28;;;10.20;99.90;;;;;;5146594;27;20047;-73
2023/09/03 00:27:49;;;;;;;0.30;0.20;;;10.20;99.90;;;;;;5144922;27;20412;-74
2023/09/03 00:30:14;;;;;;;0.38;0.38;;;10.20;99.90;;;;;;5148724;27;20031;-74
2023/09/03 00:32:40;;;;;;;0.00;0.00;;;10.20;99.90;;;;;;5153641;27;20042;-74
2023/09/03 00:35:06;;;;;;;0.20;0.15;;;10.10;99.90;;;;;;5143642;27;20086;-74
2023/09/03 00:37:32;;;;;;;0.45;0.45;;;10.10;99.90;;;;;;5143384;27;20035;-74
2023/09/03 00:39:57;;;;;;;0.00;0.00;;;10.10;99.90;;;;;;5153120;27;20482;-74
2023/09/03 00:42:23;;;;;;;0.28;0.17;;;10.00;99.90;;;;;;5155070;27;20038;-74
2023/09/03 00:44:48;;;;;;;0.22;0.22;;;10.00;99.90;;;;;;5155583;27;20043;-74
2023/09/03 00:47:16;;;;;;;0.13;0.13;;;9.80;99.90;;;;;;5143914;27;20070;-74
2023/09/03 00:49:43;;;;;;;1.75;0.93;;;9.80;1.00;;;;;;5147828;27;20098;-75
2023/09/03 00:52:10;;;;;;;0.00;0.00;;;9.90;99.90;;;;;;5154733;27;20042;-74
2023/09/03 00:54:36;;;;;;;0.80;0.75;;;9.90;99.90;;;;;;5150211;27;20043;-74
2023/09/03 00:57:02;;;;;;;0.00;0.00;;;9.90;99.90;;;;;;5151472;27;20505;-74
2023/09/03 00:59:30;;;;;;;0.10;0.10;;;10.00;99.90;;;;;;5144681;27;20039;-74
2023/09/03 01:01:56;;;;;;;0.75;0.15;;;10.00;99.90;;;;;;5156135;27;20038;-74
2023/09/03 01:04:22;;;;;;;0.08;0.08;;;10.00;99.90;;;;;;5158752;27;20419;-74
2023/09/03 01:06:49;;;;;;;1.80;0.20;;;10.10;99.90;;;;;;5153842;27;20031;-74
2023/09/03 01:09:16;;;;;;;0.60;0.40;;;10.10;99.90;;;;;;5146996;27;20456;-74
2023/09/03 01:11:45;;;;;;;0.75;0.60;;;10.20;99.90;;;;;;5154269;27;20113;-74
2023/09/03 01:14:16;;;;;;;0.43;0.43;;;10.30;99.90;;;;;;5154137;27;20130;-74
2023/09/03 01:16:55;;;;;;;0.75;0.32;;;10.30;99.90;;;;;;5150149;27;20047;-74
2023/09/03 01:19:45;;;;;;;0.60;0.45;;;10.30;99.90;;;;;;5150361;27;20042;-74
2023/09/03 01:22:43;;;;;;;0.43;0.43;;;10.30;99.90;;;;;;5152015;27;20050;-74
2023/09/03 01:25:25;;;;;;;0.47;0.25;;;10.30;1.00;;;;;;5143372;27;20046;-74
2023/09/03 01:28:28;;;;;;;1.08;0.82;;;10.30;99.90;;;;;;5147600;27;20074;-74
2023/09/03 01:31:03;;;;;;;0.17;0.17;;;10.20;99.90;;;;;;5155543;27;20051;-74
2023/09/03 01:33:31;;;;;;;0.35;0.35;;;10.20;99.90;;;;;;5151520;27;20110;-74
2023/09/03 01:35:57;;;;;;;1.75;1.17;;;10.20;99.90;;;;;;5157737;27;20485;-74
2023/09/03 01:38:23;;;;;;;0.35;0.32;;;10.20;99.90;;;;;;5149453;27;20172;-74
2023/09/03 01:40:57;;;;;;;0.45;0.43;;;10.10;99.90;;;;;;5149790;27;20464;-74
2023/09/03 01:43:23;;;;;;;0.20;0.20;;;10.10;99.90;;;;;;5143806;27;20401;-74
2023/09/03 01:46:07;;;;;;;0.35;0.30;;;10.10;99.90;;;;;;5137808;27;20066;-74
2023/09/03 01:48:54;;;;;;;0.32;0.32;;;10.10;1.00;;;;;;5146432;27;20043;-74
2023/09/03 01:51:46;;;;;;;2.00;0.52;;;10.10;1.00;;;;;;5146418;27;20503;-74
2023/09/03 01:54:22;;;;;;;0.35;0.35;;;10.20;1.00;;;;;;5147727;27;20051;-74
2023/09/03 01:56:59;;;;;;;0.65;0.60;;;10.20;1.00;;;;;;5149449;27;20418;-75
2023/09/03 01:59:48;;;;;;;0.57;0.57;;;10.20;1.00;;;;;;5149405;27;20066;-75
2023/09/03 02:02:16;;;;;;;0.50;0.43;;;10.20;1.00;;;;;;5146628;27;20051;-74
2023/09/03 02:04:42;;;;;;;0.43;0.40;;;10.20;1.00;;;;;;5149265;27;20545;-74
2023/09/03 02:07:08;;;;;;;2.65;0.70;;;10.20;47.80;;;;;;5149186;27;20393;-74
2023/09/03 02:09:34;;;;;;;0.77;0.73;;;10.20;1.00;;;;;;5152914;27;20046;-74
2023/09/03 02:11:59;;;;;;;0.17;0.17;;;10.20;1.00;;;;;;5157539;27;20035;-74
2023/09/03 02:14:26;;;;;;;1.17;0.85;;;10.20;1.00;;;;;;5155865;27;20116;-75
2023/09/03 02:16:52;;;;;;;1.42;0.95;;;10.20;1.00;;;;;;5150329;27;20046;-74
2023/09/03 02:19:18;;;;;;;0.55;0.55;;;10.20;1.00;;;;;;5145871;27;20035;-74
2023/09/03 02:21:44;;;;;;;0.00;0.00;;;10.10;1.00;;;;;;5153827;27;20054;-75
2023/09/03 02:24:09;;;;;;;0.38;0.22;;;10.10;1.00;;;;;;5145501;27;20045;-75
2023/09/03 02:26:43;;;;;;;0.00;0.00;;;10.10;21.70;;;;;;5145736;27;20043;-74
2023/09/03 02:29:09;;;;;;;0.20;0.13;;;10.00;18.30;;;;;;5153065;27;20039;-75
2023/09/03 02:31:35;;;;;;;0.85;0.70;;;10.00;22.60;;;;;;5154134;27;20051;-76
2023/09/03 02:34:03;;;;;;;0.00;0.00;;;10.00;65.70;;;;;;5157646;27;20130;-74
2023/09/03 02:36:30;;;;;;;1.23;0.68;;;10.00;94.40;;;;;;5148771;27;20034;-74
2023/09/03 02:39:06;;;;;;;0.00;0.00;;;9.90;66.40;;;;;;5144960;27;20043;-74
2023/09/03 02:41:33;;;;;;;0.77;0.43;;;9.90;44.80;;;;;;5150468;27;20043;-74
2023/09/03 02:44:00;;;;;;;1.17;0.77;;;9.80;78.00;;;;;;5146708;27;20454;-75
2023/09/03 02:46:26;;;;;;;0.10;0.10;;;9.80;96.90;;;;;;5156940;27;20073;-75
2023/09/03 02:48:53;;;;;;;0.38;0.30;;;9.80;99.90;;;;;;5157052;27;20050;-74
2023/09/03 02:51:18;;;;;;;0.55;0.22;;;9.70;99.90;;;;;;5149757;27;20035;-75
2023/09/03 02:53:45;;;;;;;2.78;1.05;;;9.60;99.90;;;;;;5142093;27;20405;-78
2023/09/03 02:56:12;;;;;;;0.35;0.35;;;9.60;99.90;;;;;;5146499;27;20042;-74
2023/09/03 02:58:38;;;;;;;0.57;0.57;;;9.50;99.90;;;;;;5148387;27;20042;-74
2023/09/03 03:01:06;;;;;;;0.10;0.10;;;9.50;99.90;;;;;;5150822;27;20045;-74
2023/09/03 03:03:32;;;;;;;0.85;0.73;;;9.60;99.90;;;;;;5145043;27;20100;-75
2023/09/03 03:05:57;;;;;;;0.03;0.03;;;9.60;99.90;;;;;;5145347;27;20437;-75
2023/09/03 03:08:23;;;;;;;1.30;0.85;;;9.60;99.90;;;;;;5145739;27;20035;-74
2023/09/03 03:10:50;;;;;;;0.38;0.30;;;9.60;99.90;;;;;;5151464;27;20134;-74
2023/09/03 03:13:16;;;;;;;0.22;0.22;;;9.60;99.90;;;;;;5156590;27;20102;-75
2023/09/03 03:15:41;;;;;;;0.65;0.43;;;9.60;99.90;;;;;;5144824;27;20043;-75
2023/09/03 03:18:07;;;;;;;1.23;0.90;;;9.50;99.90;;;;;;5144407;27;20069;-74
2023/09/03 03:20:33;;;;;;;0.55;0.55;;;9.40;99.90;;;;;;5150561;27;20039;-75
2023/09/03 03:22:58;;;;;;;0.10;0.10;;;9.30;99.90;;;;;;5151921;27;20043;-75
2023/09/03 03:25:24;;;;;;;1.77;1.65;;;9.30;99.90;;;;;;5144565;27;20038;-74
2023/09/03 03:27:49;;;;;;;0.10;0.10;;;9.30;99.90;;;;;;5152886;27;20046;-74
2023/09/03 03:30:15;;;;;;;0.35;0.35;;;9.20;99.90;;;;;;5146261;27;20046;-75
2023/09/03 03:32:41;;;;;;;0.15;0.05;;;9.10;99.90;;;;;;5156346;27;20549;-74
2023/09/03 03:35:06;;;;;;;0.25;0.20;;;9.10;99.90;;;;;;5152782;27;20042;-74
2023/09/03 03:37:32;;;;;;;1.23;0.40;;;9.00;99.90;;;;;;5144485;27;20520;-75
2023/09/03 03:39:58;;;;;;;0.52;0.52;;;9.00;99.90;;;;;;5146188;27;20509;-74
2023/09/03 03:42:24;;;;;;;1.35;0.30;;;9.00;99.90;;;;;;5155824;27;20410;-75
2023/09/03 03:44:50;;;;;;;0.00;0.00;;;9.00;99.90;;;;;;5147304;27;20039;-75
2023/09/03 03:47:15;;;;;;;0.10;0.10;;;9.10;99.90;;;;;;5147152;27;20042;-75
2023/09/03 03:49:41;;;;;;;0.60;0.60;;;9.00;99.90;;;;;;5147480;27;20031;-75
2023/09/03 03:52:06;;;;;;;0.30;0.30;;;9.10;99.90;;;;;;5154386;27;20042;-75
2023/09/03 03:54:33;;;;;;;1.05;0.55;;;9.10;99.90;;;;;;5147300;27;20070;-75
2023/09/03 03:56:58;;;;;;;0.10;0.10;;;9.20;99.90;;;;;;5147534;27;20106;-75
2023/09/03 03:59:24;;;;;;;0.20;0.20;;;9.20;99.90;;;;;;5144263;27;20516;-74
2023/09/03 04:01:49;;;;;;;0.15;0.15;;;9.20;1.00;;;;;;5150528;27;20039;-75
2023/09/03 04:04:15;;;;;;;1.17;0.82;;;9.20;1.00;;;;;;5155073;27;20050;-75
2023/09/03 04:06:40;;;;;;;4.00;0.45;;;9.20;1.00;;;;;;5146494;27;20473;-75
2023/09/03 04:09:06;;;;;;;2.85;0.35;;;9.20;99.90;;;;;;5142890;27;20035;-75
2023/09/03 04:11:32;;;;;;;0.32;0.30;;;9.20;99.90;;;;;;5147592;27;20043;-75
2023/09/03 04:13:57;;;;;;;1.25;0.65;;;9.20;99.90;;;;;;5155925;27;20041;-75
2023/09/03 04:16:23;;;;;;;1.77;0.50;;;9.20;99.90;;;;;;5146742;27;20473;-74
2023/09/03 04:18:51;;;;;;;0.20;0.20;;;10.50;99.90;;;;;;5135319;27;20054;-74
2023/09/03 04:21:17;;;;;;;1.08;0.73;;;9.20;99.90;;;;;;5151011;27;20113;-74
2023/09/03 04:23:43;;;;;;;0.22;0.20;;;9.20;99.90;;;;;;5146636;27;20460;-74
2023/09/03 04:26:09;;;;;;;0.10;0.10;;;9.20;1.00;;;;;;5147098;27;20034;-75
2023/09/03 04:28:35;;;;;;;0.22;0.22;;;9.20;1.00;;;;;;5146500;27;20035;-75
2023/09/03 04:31:08;;;;;;;0.52;0.52;;;9.20;1.00;;;;;;5146806;27;20065;-75
2023/09/03 04:33:35;;;;;;;0.17;0.17;;;9.10;1.00;;;;;;5155486;27;20047;-75
2023/09/03 04:36:02;;;;;;;0.10;0.10;;;9.10;1.00;;;;;;5152418;27;20039;-74
2023/09/03 04:38:28;;;;;;;0.32;0.20;;;9.10;1.00;;;;;;5143613;27;20058;-75
2023/09/03 04:40:55;;;;;;;0.30;0.28;;;9.10;1.00;;;;;;5149632;27;20027;-75
2023/09/03 04:43:22;;;;;;;0.30;0.30;;;9.20;1.00;;;;;;5155438;27;20035;-74
2023/09/03 04:45:49;;;;;;;3.17;0.90;;;9.10;1.00;;;;;;5138748;27;20513;-75
2023/09/03 04:48:19;;;;;;;0.95;0.55;;;9.10;1.00;;;;;;5146802;27;20039;-75
2023/09/03 04:50:45;;;;;;;0.00;0.00;;;9.20;1.00;;;;;;5152566;27;20497;-73
2023/09/03 04:53:13;;;;;;;0.35;0.28;;;9.20;1.00;;;;;;5155374;27;20116;-74
2023/09/03 04:55:40;;;;;;;0.32;0.30;;;9.20;1.00;;;;;;5146976;27;20144;-74
2023/09/03 04:58:06;;;;;;;0.00;0.00;;;9.20;1.00;;;;;;5146080;27;20046;-75
2023/09/03 05:00:32;;;;;;;0.28;0.20;;;9.10;1.00;;;;;;5145989;27;20035;-75
2023/09/03 05:02:58;;;;;;;0.22;0.22;;;9.10;1.00;;;;;;5155386;27;20047;-74
2023/09/03 05:05:24;;;;;;;0.38;0.28;;;9.20;1.00;;;;;;5146939;27;20388;-75
2023/09/03 05:07:50;;;;;;;0.00;0.00;;;9.10;1.00;;;;;;5146645;27;20038;-75
2023/09/03 05:10:16;;;;;;;0.05;0.05;;;9.10;1.00;;;;;;5149935;27;20031;-75
2023/09/03 05:12:42;;;;;;;0.00;0.00;;;9.10;1.00;;;;;;5155140;27;20450;-75
2023/09/03 05:15:11;;;;;;;0.20;0.20;;;9.10;1.00;;;;;;5153897;27;20039;-75
2023/09/03 05:17:38;;;;;;;0.30;0.30;;;9.20;1.00;;;;;;5153338;27;20030;-74
2023/09/03 05:20:04;;;;;;;0.47;0.47;;;9.20;1.00;;;;;;5142077;27;20046;-75
2023/09/03 05:22:30;;;;;;;0.25;0.10;;;9.20;1.00;;;;;;5152785;27;20050;-75
2023/09/03 05:24:55;;;;;;;0.08;0.08;;;9.30;1.00;;;;;;5146169;27;20051;-75
2023/09/03 05:27:21;;;;;;;0.10;0.10;;;9.30;1.00;;;;;;5147662;27;20519;-75
2023/09/03 05:29:47;;;;;;;0.20;0.10;;;9.40;1.00;;;;;;5145366;27;20040;-75
2023/09/03 05:32:13;;;;;;;0.10;0.10;;;9.50;1.00;;;;;;5155412;27;20053;-75
2023/09/03 05:34:39;;;;;;;1.30;0.47;;;9.60;1.00;;;;;;5146657;27;20118;-75
2023/09/03 05:37:04;;;;;;;0.40;0.38;;;9.70;5.50;;;;;;5142804;27;20035;-75
2023/09/03 05:39:31;;;;;;;0.98;0.60;;;9.80;13.10;;;;;;5143480;27;20062;-75
2023/09/03 05:41:56;;;;;;;0.28;0.28;;;10.00;26.40;;;;;;5152683;27;20039;-75
2023/09/03 05:44:22;;;;;;;0.52;0.35;;;10.00;33.10;;;;;;5146696;27;20125;-76
2023/09/03 05:46:48;;;;;;;0.28;0.20;;;10.20;34.70;;;;;;5146610;27;20038;-76
2023/09/03 05:49:14;;;;;;;1.52;0.82;;;10.40;34.50;;;;;;5148206;27;20468;-76
2023/09/03 05:51:40;;;;;;;0.65;0.65;;;10.50;35.20;;;;;;5158277;27;20080;-73
2023/09/03 05:54:07;;;;;;;0.15;0.15;;;10.60;27.30;;;;;;5149818;27;20040;-73
2023/09/03 05:56:35;;;;;;;0.05;0.05;;;10.70;15.50;;;;;;5149479;27;20113;-74
2023/09/03 05:59:05;;;;;;;0.05;0.05;;;10.90;16.40;;;;;;5153114;27;20043;-74
2023/09/03 06:01:32;;;;;;;1.73;0.73;;;11.00;13.20;;;;;;5150075;27;20075;-74
2023/09/03 06:04:02;;;;;;;0.20;0.20;;;11.10;3.70;;;;;;5157982;27;20043;-74
2023/09/03 06:06:28;;;;;;;0.03;0.03;;;11.20;1.00;;;;;;5146934;27;20067;-74
2023/09/03 06:08:54;;;;;;;0.80;0.38;;;11.30;1.00;;;;;;5155854;27;20070;-74
2023/09/03 06:11:20;;;;;;;0.00;0.00;;;11.50;1.00;;;;;;5150510;27;20138;-74
2023/09/03 06:13:46;;;;;;;0.13;0.13;;;11.60;1.00;;;;;;5149142;27;20035;-74
2023/09/03 06:16:11;;;;;;;0.68;0.25;;;11.90;1.00;;;;;;5151136;27;20038;-75
2023/09/03 06:18:37;;;;;;;0.15;0.15;;;12.00;1.00;;;;;;5157011;27;20512;-74
2023/09/03 06:21:03;;;;;;;0.35;0.30;;;12.60;1.00;;;;;;5157233;27;20035;-74
2023/09/03 06:23:28;;;;;;;0.20;0.15;;;12.70;99.90;;;;;;5156762;27;20475;-74
2023/09/03 06:25:54;;;;;;;0.65;0.43;;;13.00;99.90;;;;;;5148237;27;20524;-74
2023/09/03 06:28:19;;;;;;;0.08;0.08;;;13.20;99.90;;;;;;5147963;27;20496;-74
2023/09/03 06:30:45;;;;;;;0.22;0.20;;;13.30;99.90;;;;;;5148927;27;20489;-74
2023/09/03 06:33:12;;;;;;;0.98;0.73;;;13.50;99.90;;;;;;5150900;27;20031;-74
2023/09/03 06:35:37;;;;;;;0.00;0.00;;;14.00;99.90;;;;;;5144322;27;20047;-74
2023/09/03 06:38:03;;;;;;;0.00;0.00;;;14.10;99.90;;;;;;5147276;27;20027;-74
2023/09/03 06:40:29;;;;;;;0.00;0.00;;;14.40;72.10;;;;;;5149572;27;20059;-74
2023/09/03 06:42:54;;;;;;;0.75;0.60;;;14.70;1.00;;;;;;5156167;27;20042;-74
2023/09/03 06:45:20;;;;;;;0.10;0.10;;;15.00;99.90;;;;;;5143451;27;20039;-74
2023/09/03 06:47:46;;;;;;;2.90;0.80;;;15.30;99.90;;;;;;5144239;27;20039;-73
2023/09/03 06:50:12;;;;;;;0.05;0.05;;;16.00;99.90;;;;;;5150108;27;20064;-74
2023/09/03 06:52:39;;;;;;;0.00;0.00;;;16.20;1.00;;;;;;5155761;27;20035;-74
2023/09/03 06:55:05;;;;;;;0.30;0.25;;;16.60;99.90;;;;;;5147214;27;20039;-74
2023/09/03 06:57:32;;;;;;;0.00;0.00;;;17.10;99.90;;;;;;5147382;27;20111;-74
2023/09/03 06:59:58;;;;;;;0.00;0.00;;;17.70;99.90;;;;;;5146553;27;20102;-74
2023/09/03 07:02:25;;;;;;;0.20;0.20;;;18.40;83.00;;;;;;5155846;27;20058;-74
2023/09/03 07:04:51;;;;;;;0.08;0.08;;;19.10;99.90;;;;;;5149713;27;20054;-74
2023/09/03 07:07:16;;;;;;;0.00;0.00;;;19.60;99.90;;;;;;5144490;27;20130;-74
2023/09/03 07:09:42;;;;;;;0.30;0.22;;;20.00;99.90;;;;;;5147019;27;20066;-74
2023/09/03 07:12:08;;;;;;;0.55;0.38;;;20.40;14.10;;;;;;5153344;27;20555;-75
2023/09/03 07:14:35;;;;;;;0.00;0.00;;;20.90;1.00;;;;;;5145882;27;20030;-74
2023/09/03 07:17:01;;;;;;;1.25;0.75;;;21.40;99.90;;;;;;5155343;27;20374;-74
2023/09/03 07:19:28;;;;;;;0.22;0.22;;;21.90;99.90;;;;;;5146687;27;20039;-74
2023/09/03 07:21:54;;;;;;;9.23;0.85;;;22.20;99.90;;;;;;5151123;27;20035;-74
2023/09/03 07:24:19;;;;;;;0.00;0.00;;;22.40;99.90;;;;;;5155753;27;20042;-75
2023/09/03 07:26:45;;;;;;;0.65;0.35;;;22.50;99.90;;;;;;5146376;27;20041;-74
2023/09/03 07:29:12;;;;;;;0.30;0.30;;;22.10;99.90;;;;;;5145983;27;20059;-74
2023/09/03 07:31:41;;;;;;;0.00;0.00;;;21.50;99.90;;;;;;5144529;27;20039;-74
2023/09/03 07:34:10;;;;;;;0.57;0.55;;;20.80;99.90;;;;;;5145367;27;20035;-74
2023/09/03 07:36:36;;;;;;;0.10;0.10;;;20.20;99.90;;;;;;5145297;27;20050;-74
2023/09/03 07:39:06;;;;;;;0.00;0.00;;;19.70;99.90;;;;;;5153695;27;20035;-74
2023/09/03 07:41:32;;;;;;;0.25;0.20;;;19.50;99.90;;;;;;5144594;27;20512;-74
2023/09/03 07:43:59;;;;;;;0.15;0.15;;;19.30;99.90;;;;;;5153689;27;20063;-74
2023/09/03 07:46:25;;;;;;;0.30;0.25;;;19.10;99.90;;;;;;5150527;27;20113;-74
2023/09/03 07:48:51;;;;;;;0.13;0.10;;;19.30;99.90;;;;;;5151829;27;20110;-74
2023/09/03 07:51:19;;;;;;;0.22;0.10;;;19.50;99.90;;;;;;5135301;27;20046;-74
2023/09/03 07:53:45;;;;;;;0.20;0.20;;;19.70;99.90;;;;;;5150802;27;20038;-74
2023/09/03 07:56:10;;;;;;;1.00;0.90;;;19.80;99.90;;;;;;5149905;27;20066;-74
2023/09/03 07:58:38;;;;;;;0.45;0.40;;;19.90;99.90;;;;;;5150826;27;20476;-74
2023/09/03 08:01:04;;;;;;;0.32;0.20;;;20.10;99.90;;;;;;5142862;27;20051;-74
2023/09/03 08:03:33;;;;;;;0.00;0.00;;;20.50;99.90;;;;;;5146730;27;20039;-74
2023/09/03 08:06:00;;;;;;;0.17;0.17;;;20.80;99.90;;;;;;5151052;27;20039;-74
2023/09/03 08:08:27;;;;;;;0.22;0.22;;;21.30;99.90;;;;;;5148998;27;20058;-74
2023/09/03 08:10:52;;;;;;;0.00;0.00;;;22.00;99.90;;;;;;5139074;27;20036;-74
2023/09/03 08:13:18;;;;;;;0.30;0.30;;;22.70;99.90;;;;;;5140682;27;20095;-74
2023/09/03 08:15:43;;;;;;;0.05;0.05;;;23.20;99.90;;;;;;5147530;27;20524;-75
2023/09/03 08:18:09;;;;;;;0.15;0.15;;;23.40;82.90;;;;;;5150421;27;20122;-75
2023/09/03 08:20:35;;;;;;;0.10;0.10;;;23.60;81.20;;;;;;5140774;27;20489;-75
2023/09/03 08:23:00;;;;;;;0.75;0.52;;;23.70;74.10;;;;;;5149743;27;20042;-75
2023/09/03 08:25:28;;;;;;;3.40;0.57;;;23.90;26.60;;;;;;5142679;27;20080;-75
2023/09/03 08:27:53;;;;;;;0.08;0.08;;;23.90;6.40;;;;;;5145689;27;20081;-75
2023/09/03 08:30:19;;;;;;;1.00;0.52;;;24.30;21.20;;;;;;5142802;27;20070;-75
2023/09/03 08:32:44;;;;;;;0.10;0.10;;;24.40;1.00;;;;;;5142371;27;20039;-75
2023/09/03 08:35:10;;;;;;;3.83;0.70;;;24.80;1.00;;;;;;5140462;27;20126;-75
2023/09/03 08:37:35;;;;;;;0.00;0.00;;;25.00;1.00;;;;;;5141023;27;20145;-75
2023/09/03 08:40:01;;;;;;;0.17;0.10;;;25.50;9.20;;;;;;5142274;27;20103;-75
2023/09/03 08:42:28;;;;;;;0.10;0.10;;;25.80;1.00;;;;;;5141943;27;20035;-75
2023/09/03 08:45:00;;;;;;;0.10;0.10;;;26.00;1.00;;;;;;5150381;27;20125;-75
2023/09/03 08:47:26;;;;;;;0.10;0.10;;;25.80;1.00;;;;;;5143989;27;20049;-75
2023/09/03 08:49:53;;;;;;;0.15;0.15;;;25.60;1.00;;;;;;5142151;27;20482;-75
2023/09/03 08:52:19;;;;;;;0.28;0.22;;;25.30;1.00;;;;;;5141436;27;20039;-75
2023/09/03 08:54:45;;;;;;;0.00;0.00;;;25.20;1.00;;;;;;5138982;27;20066;-75
2023/09/03 08:57:12;;;;;;;0.00;0.00;;;25.30;1.00;;;;;;5140907;27;20031;-75
2023/09/03 08:59:38;;;;;;;0.00;0.00;;;25.60;1.00;;;;;;5142320;27;20061;-75
2023/09/03 09:02:08;;;;;;;0.20;0.20;;;25.80;1.00;;;;;;5142528;27;20035;-75
2023/09/03 09:04:34;;;;;;;0.10;0.10;;;25.90;1.00;;;;;;5139237;27;20039;-75
2023/09/03 09:07:01;;;;;;;0.00;0.00;;;25.80;1.00;;;;;;5139120;27;20095;-75
2023/09/03 09:09:29;;;;;;;0.28;0.20;;;25.80;1.00;;;;;;5141575;27;20086;-75
2023/09/03 09:12:18;;;;;;;0.75;0.63;;;25.90;1.00;;;;;;5150595;27;20416;-75
2023/09/03 09:14:53;;;;;;;0.03;0.03;;;26.00;99.90;;;;;;5138692;27;20091;-75
2023/09/03 09:17:19;;;;;;;0.00;0.00;;;26.00;99.90;;;;;;5137166;27;20130;-75
2023/09/03 09:19:45;;;;;;;0.13;0.13;;;26.00;99.90;;;;;;5141919;27;20500;-75
2023/09/03 09:22:11;;;;;;;0.00;0.00;;;26.10;99.90;;;;;;5141483;27;20087;-75
2023/09/03 09:24:44;;;;;;;0.00;0.00;;;26.30;99.90;;;;;;5144705;27;20142;-75
2023/09/03 09:27:18;;;;;;;0.22;0.10;;;26.20;99.90;;;;;;5142701;27;20045;-75
2023/09/03 09:29:44;;;;;;;0.10;0.10;;;26.50;99.90;;;;;;5145960;27;20099;-75
2023/09/03 09:32:18;;;;;;;0.20;0.20;;;26.30;99.90;;;;;;5152507;27;20611;-75
2023/09/03 09:34:44;;;;;;;0.00;0.00;;;26.20;99.90;;;;;;5143897;27;20058;-75
2023/09/03 09:37:10;;;;;;;6.82;0.60;;;26.20;99.90;;;;;;5149497;27;20079;-75
2023/09/03 09:39:47;;;;;;;0.15;0.08;;;26.10;99.90;;;;;;5145851;27;20035;-75
2023/09/03 09:42:14;;;;;;;0.20;0.10;;;26.00;99.90;;;;;;5142501;27;20035;-75
2023/09/03 09:44:55;;;;;;;1.95;0.70;;;25.90;99.90;;;;;;5149627;27;20534;-75
2023/09/03 09:47:21;;;;;;;0.00;0.00;;;25.70;99.90;;;;;;5142519;27;20039;-75
2023/09/03 09:49:47;;;;;;;0.00;0.00;;;25.30;99.90;;;;;;5150082;27;20111;-75
2023/09/03 09:52:14;;;;;;;0.00;0.00;;;25.10;99.90;;;;;;5153568;27;20441;-75
2023/09/03 09:54:44;;;;;;;0.00;0.00;;;24.90;99.90;;;;;;5145401;27;20035;-75
2023/09/03 09:57:15;;;;;;;0.52;0.50;;;24.80;99.90;;;;;;5152206;27;20108;-75
2023/09/03 09:59:44;;;;;;;0.05;0.05;;;24.50;99.90;;;;;;5147660;27;20049;-75
2023/09/03 10:02:15;;;;;;;0.00;0.00;;;24.40;99.90;;;;;;5147720;27;20115;-75
2023/09/03 10:04:48;;;;;;;0.00;0.00;;;24.20;99.90;;;;;;5153209;27;20042;-75
2023/09/03 10:07:14;;;;;;;0.00;0.00;;;24.30;99.90;;;;;;5144529;27;20051;-75
2023/09/03 10:09:41;;;;;;;0.30;0.30;;;24.20;99.90;;;;;;5146089;27;20038;-75
2023/09/03 10:12:08;;;;;;;0.00;0.00;;;24.20;99.90;;;;;;5153296;27;20035;-75
2023/09/03 10:14:34;;;;;;;0.00;0.00;;;24.30;99.90;;;;;;5153467;27;20132;-75
2023/09/03 10:17:02;;;;;;;0.38;0.28;;;24.20;99.90;;;;;;5145029;27;20066;-75
2023/09/03 10:19:39;;;;;;;0.10;0.10;;;24.20;99.90;;;;;;5144534;27;20401;-75
2023/09/03 10:22:06;;;;;;;0.10;0.10;;;24.20;99.90;;;;;;5153129;27;20051;-75
2023/09/03 10:24:34;;;;;;;0.00;0.00;;;24.20;99.90;;;;;;5152449;27;20046;-75
2023/09/03 10:27:04;;;;;;;0.45;0.25;;;24.40;99.90;;;;;;5145844;27;20088;-75
2023/09/03 10:29:32;;;;;;;0.13;0.13;;;24.50;99.90;;;;;;5153382;27;20035;-75
2023/09/03 10:32:01;;;;;;;0.00;0.00;;;24.70;99.90;;;;;;5141777;27;20046;-75
2023/09/03 10:34:26;;;;;;;0.00;0.00;;;24.80;99.90;;;;;;5147849;27;20039;-75
2023/09/03 10:37:04;;;;;;;0.30;0.22;;;25.00;99.90;;;;;;5144613;27;20146;-75
2023/09/03 10:39:30;;;;;;;0.00;0.00;;;25.00;99.90;;;;;;5144433;27;20064;-74
2023/09/03 10:42:23;;;;;;;1.00;0.35;;;25.10;99.90;;;;;;5149693;27;20339;-75
2023/09/03 10:44:57;;;;;;;0.08;0.08;;;25.00;99.90;;;;;;5138868;27;20062;-75
2023/09/03 10:47:23;;;;;;;1.70;0.43;;;25.00;99.90;;;;;;5153235;27;20034;-75
2023/09/03 10:49:53;;;;;;;0.00;0.00;;;25.10;99.90;;;;;;5144564;27;20099;-75
2023/09/03 10:52:28;;;;;;;0.00;0.00;;;24.80;99.90;;;;;;5138245;27;20043;-75
2023/09/03 10:55:17;;;;;;;0.10;0.10;;;24.90;99.90;;;;;;5145717;27;20038;-75
2023/09/03 10:58:06;;;;;;;0.32;0.32;;;25.20;99.90;;;;;;5147077;27;20081;-75
2023/09/03 11:00:31;;;;;;;0.00;0.00;;;25.70;99.90;;;;;;5145017;27;20118;-75
2023/09/03 11:03:15;;;;;;;0.10;0.10;;;25.90;99.90;;;;;;5152441;27;20054;-75
2023/09/03 11:05:41;;;;;;;0.10;0.10;;;25.70;99.90;;;;;;5140778;27;20599;-75
2023/09/03 11:08:33;;;;;;;0.00;0.00;;;25.80;99.90;;;;;;5144953;27;20039;-76
2023/09/03 11:10:59;;;;;;;0.20;0.20;;;25.70;99.90;;;;;;5147473;27;20057;-75
2023/09/03 11:13:26;;;;;;;0.00;0.00;;;25.90;99.90;;;;;;5143271;27;20551;-75
2023/09/03 11:15:56;;;;;;;0.00;0.00;;;26.10;99.90;;;;;;5143741;27;20038;-76
2023/09/03 11:18:25;;;;;;;0.00;0.00;;;26.20;99.90;;;;;;5143226;27;20047;-75
2023/09/03 11:20:51;;;;;;;0.03;0.03;;;26.30;99.90;;;;;;5144486;27;20042;-75
2023/09/03 11:23:18;;;;;;;0.00;0.00;;;26.20;99.90;;;;;;5144219;27;20103;-76
2023/09/03 11:25:43;;;;;;;0.00;0.00;;;26.20;99.90;;;;;;5151072;27;20617;-75
2023/09/03 11:28:13;;;;;;;0.45;0.20;;;26.40;99.90;;;;;;5143640;27;20039;-76
2023/09/03 11:30:46;;;;;;;0.00;0.00;;;26.30;99.90;;;;;;5143428;27;20035;-75
2023/09/03 11:33:26;;;;;;;0.00;0.00;;;26.40;99.90;;;;;;5146577;27;20054;-75
2023/09/03 11:35:53;;;;;;;0.10;0.10;;;26.20;99.90;;;;;;5142859;27;20051;-75
2023/09/03 11:38:29;;;;;;;0.08;0.08;;;26.50;99.90;;;;;;5142992;27;20038;-75
2023/09/03 11:40:57;;;;;;;0.10;0.10;;;26.40;99.90;;;;;;5151347;27;20108;-75
2023/09/03 11:43:24;;;;;;;0.00;0.00;;;26.60;99.90;;;;;;5148025;27;20043;-75
2023/09/03 11:45:50;;;;;;;0.00;0.00;;;26.50;99.90;;;;;;5153391;27;20051;-75
2023/09/03 11:48:25;;;;;;;0.10;0.10;;;27.30;99.90;;;;;;5145123;27;20151;-75
2023/09/03 11:50:51;;;;;;;0.00;0.00;;;27.90;99.90;;;;;;5136344;27;20049;-75
2023/09/03 11:53:17;;;;;;;0.55;0.55;;;28.00;99.90;;;;;;5134463;27;20530;-75
2023/09/03 11:55:48;;;;;;;2.38;0.32;;;28.10;99.90;;;;;;5142645;27;20039;-75
2023/09/03 11:58:17;;;;;;;0.25;0.20;;;28.30;99.90;;;;;;5150462;27;20046;-75
2023/09/03 12:00:44;;;;;;;0.00;0.00;;;28.60;99.90;;;;;;5142662;27;20158;-75
2023/09/03 12:03:10;;;;;;;0.00;0.00;;;28.90;99.90;;;;;;5143705;27;20070;-75
2023/09/03 12:05:36;;;;;;;0.15;0.15;;;28.90;99.90;;;;;;5154500;27;20378;-75
2023/09/03 12:08:04;;;;;;;0.00;0.00;;;28.60;99.90;;;;;;5145880;27;20492;-75
2023/09/03 12:10:31;;;;;;;0.00;0.00;;;28.90;99.90;;;;;;5145368;27;20042;-75
2023/09/03 12:12:59;;;;;;;0.00;0.00;;;29.00;99.90;;;;;;5147829;27;20132;-73
2023/09/03 12:15:25;;;;;;;0.00;0.00;;;29.10;99.90;;;;;;5142424;27;20089;-75
2023/09/03 12:17:51;;;;;;;0.60;0.20;;;29.30;99.90;;;;;;5145545;27;20034;-75
2023/09/03 12:20:41;;;;;;;0.20;0.00;;;28.90;99.90;;;;;;5143364;27;20038;-75
2023/09/03 12:23:11;;;;;;;2.60;0.25;;;29.40;99.90;;;;;;5141394;27;20047;-75
2023/09/03 12:25:39;;;;;;;0.20;0.15;;;29.40;99.90;;;;;;5144047;27;20096;-75
2023/09/03 12:28:05;;;;;;;0.10;0.00;;;29.70;99.90;;;;;;5145051;27;20035;-75
2023/09/03 12:31:03;;;;;;;0.05;0.03;;;29.00;99.90;;;;;;5153601;27;20035;-75
2023/09/03 12:33:45;;;;;;;0.13;0.10;;;29.00;99.90;;;;;;5144331;27;20432;-75
2023/09/03 12:36:18;;;;;;;0.10;0.10;;;29.70;99.90;;;;;;5145096;27;20034;-75
2023/09/03 12:38:54;;;;;;;0.30;0.20;;;29.20;99.90;;;;;;5142638;27;20106;-75
2023/09/03 12:41:21;;;;;;;0.00;0.00;;;29.60;99.90;;;;;;5145434;27;20080;-72
2023/09/03 12:43:47;;;;;;;0.00;0.00;;;30.00;99.90;;;;;;5141211;27;20418;-72
2023/09/03 12:46:13;;;;;;;0.10;0.10;;;30.20;99.90;;;;;;5138347;27;20042;-72
2023/09/03 12:48:41;;;;;;;0.73;0.25;;;29.70;99.90;;;;;;5149792;27;20039;-73
2023/09/03 12:51:06;;;;;;;0.40;0.30;;;29.90;99.90;;;;;;5141914;27;20042;-73
2023/09/03 12:53:32;;;;;;;0.00;0.00;;;30.60;99.90;;;;;;5143149;27;20481;-73
2023/09/03 12:55:59;;;;;;;0.00;0.00;;;31.30;99.90;;;;;;5144105;27;20034;-73
2023/09/03 12:58:24;;;;;;;0.00;0.00;;;31.60;99.90;;;;;;5147285;27;20038;-73